sensor_id;sensor_type;location;lat;lon;timestamp;P1;durP1;ratioP1;P2;durP2;ratioP2
23404;SDS011;11875;49.356;2.718;2023-05-10T00:00:07;4.07;;;2.97;;
23404;SDS011;11875;49.356;2.718;2023-05-10T00:02:34;5.38;;;3.20;;
23404;SDS011;11875;49.356;2.718;2023-05-10T00:04:59;8.00;;;2.75;;
23404;SDS011;11875;49.356;2.718;2023-05-10T00:07:25;5.75;;;2.63;;
23404;SDS011;11875;49.356;2.718;2023-05-10T00:09:51;3.67;;;2.95;;
23404;SDS011;11875;49.356;2.718;2023-05-10T00:12:17;4.97;;;2.58;;
23404;SDS011;11875;49.356;2.718;2023-05-10T00:14:42;6.22;;;2.40;;
23404;SDS011;11875;49.356;2.718;2023-05-10T00:17:08;6.70;;;2.58;;
23404;SDS011;11875;49.356;2.718;2023-05-10T00:19:33;5.00;;;2.28;;
23404;SDS011;11875;49.356;2.718;2023-05-10T00:21:59;4.43;;;2.25;;
23404;SDS011;11875;49.356;2.718;2023-05-10T00:24:25;4.65;;;1.98;;
23404;SDS011;11875;49.356;2.718;2023-05-10T00:26:50;4.20;;;2.25;;
23404;SDS011;11875;49.356;2.718;2023-05-10T00:29:16;3.15;;;2.20;;
23404;SDS011;11875;49.356;2.718;2023-05-10T00:31:41;3.25;;;2.30;;
23404;SDS011;11875;49.356;2.718;2023-05-10T00:34:07;5.72;;;2.40;;
23404;SDS011;11875;49.356;2.718;2023-05-10T00:36:32;5.43;;;2.28;;
23404;SDS011;11875;49.356;2.718;2023-05-10T00:38:58;4.63;;;2.33;;
23404;SDS011;11875;49.356;2.718;2023-05-10T00:41:24;4.97;;;2.60;;
23404;SDS011;11875;49.356;2.718;2023-05-10T00:43:49;4.60;;;2.47;;
23404;SDS011;11875;49.356;2.718;2023-05-10T00:46:15;5.50;;;2.75;;
23404;SDS011;11875;49.356;2.718;2023-05-10T00:48:41;5.28;;;2.63;;
23404;SDS011;11875;49.356;2.718;2023-05-10T00:51:08;7.53;;;3.30;;
23404;SDS011;11875;49.356;2.718;2023-05-10T00:53:34;5.90;;;2.70;;
23404;SDS011;11875;49.356;2.718;2023-05-10T00:56:00;5.25;;;2.58;;
23404;SDS011;11875;49.356;2.718;2023-05-10T00:58:28;9.35;;;2.90;;
23404;SDS011;11875;49.356;2.718;2023-05-10T01:00:55;5.18;;;2.50;;
23404;SDS011;11875;49.356;2.718;2023-05-10T01:03:22;21.30;;;3.15;;
23404;SDS011;11875;49.356;2.718;2023-05-10T01:05:48;8.43;;;3.15;;
23404;SDS011;11875;49.356;2.718;2023-05-10T01:08:14;7.63;;;3.22;;
23404;SDS011;11875;49.356;2.718;2023-05-10T01:10:40;7.78;;;2.90;;
23404;SDS011;11875;49.356;2.718;2023-05-10T01:13:08;9.25;;;3.55;;
23404;SDS011;11875;49.356;2.718;2023-05-10T01:15:34;6.70;;;3.40;;
23404;SDS011;11875;49.356;2.718;2023-05-10T01:18:00;6.68;;;3.13;;
23404;SDS011;11875;49.356;2.718;2023-05-10T01:20:27;9.00;;;3.33;;
23404;SDS011;11875;49.356;2.718;2023-05-10T01:32:11;6.72;;;2.92;;
23404;SDS011;11875;49.356;2.718;2023-05-10T01:37:45;7.72;;;3.30;;
23404;SDS011;11875;49.356;2.718;2023-05-10T01:43:17;8.98;;;3.17;;
23404;SDS011;11875;49.356;2.718;2023-05-10T01:45:55;11.43;;;3.10;;
23404;SDS011;11875;49.356;2.718;2023-05-10T01:48:29;10.20;;;2.75;;
23404;SDS011;11875;49.356;2.718;2023-05-10T01:50:56;5.60;;;2.13;;
23404;SDS011;11875;49.356;2.718;2023-05-10T01:53:23;6.72;;;2.70;;
23404;SDS011;11875;49.356;2.718;2023-05-10T01:55:51;8.80;;;2.70;;
23404;SDS011;11875;49.356;2.718;2023-05-10T01:58:21;5.25;;;2.30;;
23404;SDS011;11875;49.356;2.718;2023-05-10T02:00:54;6.57;;;2.58;;
23404;SDS011;11875;49.356;2.718;2023-05-10T02:03:22;7.90;;;2.60;;
23404;SDS011;11875;49.356;2.718;2023-05-10T02:05:52;6.57;;;2.42;;
23404;SDS011;11875;49.356;2.718;2023-05-10T02:08:19;6.05;;;2.50;;
23404;SDS011;11875;49.356;2.718;2023-05-10T02:10:47;8.10;;;2.22;;
23404;SDS011;11875;49.356;2.718;2023-05-10T02:13:15;9.20;;;2.40;;
23404;SDS011;11875;49.356;2.718;2023-05-10T02:15:42;5.47;;;2.60;;
23404;SDS011;11875;49.356;2.718;2023-05-10T02:18:09;3.67;;;2.10;;
23404;SDS011;11875;49.356;2.718;2023-05-10T02:20:36;7.35;;;2.50;;
23404;SDS011;11875;49.356;2.718;2023-05-10T02:23:03;5.25;;;2.25;;
23404;SDS011;11875;49.356;2.718;2023-05-10T02:25:29;8.05;;;2.45;;
23404;SDS011;11875;49.356;2.718;2023-05-10T02:27:57;5.72;;;2.58;;
23404;SDS011;11875;49.356;2.718;2023-05-10T02:30:26;7.53;;;2.30;;
23404;SDS011;11875;49.356;2.718;2023-05-10T02:32:53;9.07;;;2.08;;
23404;SDS011;11875;49.356;2.718;2023-05-10T02:35:20;7.80;;;2.13;;
23404;SDS011;11875;49.356;2.718;2023-05-10T02:37:48;7.47;;;2.40;;
23404;SDS011;11875;49.356;2.718;2023-05-10T02:40:15;8.85;;;2.30;;
23404;SDS011;11875;49.356;2.718;2023-05-10T02:42:42;5.45;;;1.95;;
23404;SDS011;11875;49.356;2.718;2023-05-10T02:45:14;4.63;;;1.90;;
23404;SDS011;11875;49.356;2.718;2023-05-10T02:47:43;9.38;;;2.42;;
23404;SDS011;11875;49.356;2.718;2023-05-10T02:50:08;6.47;;;2.38;;
23404;SDS011;11875;49.356;2.718;2023-05-10T02:52:57;10.38;;;2.67;;
23404;SDS011;11875;49.356;2.718;2023-05-10T02:55:38;9.50;;;2.80;;
23404;SDS011;11875;49.356;2.718;2023-05-10T02:58:06;4.88;;;2.00;;
23404;SDS011;11875;49.356;2.718;2023-05-10T03:00:32;9.63;;;2.20;;
23404;SDS011;11875;49.356;2.718;2023-05-10T03:02:58;6.57;;;2.17;;
23404;SDS011;11875;49.356;2.718;2023-05-10T03:05:24;8.98;;;1.90;;
23404;SDS011;11875;49.356;2.718;2023-05-10T03:07:49;12.25;;;2.70;;
23404;SDS011;11875;49.356;2.718;2023-05-10T03:10:16;9.43;;;2.10;;
23404;SDS011;11875;49.356;2.718;2023-05-10T03:18:01;5.13;;;1.70;;
23404;SDS011;11875;49.356;2.718;2023-05-10T03:20:44;8.52;;;1.80;;
23404;SDS011;11875;49.356;2.718;2023-05-10T03:26:04;4.90;;;2.03;;
23404;SDS011;11875;49.356;2.718;2023-05-10T03:28:31;3.70;;;1.67;;
23404;SDS011;11875;49.356;2.718;2023-05-10T03:30:58;5.85;;;1.88;;
23404;SDS011;11875;49.356;2.718;2023-05-10T03:33:25;7.75;;;2.33;;
23404;SDS011;11875;49.356;2.718;2023-05-10T03:35:50;6.07;;;1.98;;
23404;SDS011;11875;49.356;2.718;2023-05-10T03:38:16;6.05;;;1.83;;
23404;SDS011;11875;49.356;2.718;2023-05-10T03:40:41;3.60;;;1.60;;
23404;SDS011;11875;49.356;2.718;2023-05-10T03:43:07;6.68;;;1.80;;
23404;SDS011;11875;49.356;2.718;2023-05-10T03:45:33;8.63;;;2.88;;
23404;SDS011;11875;49.356;2.718;2023-05-10T03:47:58;8.90;;;2.47;;
23404;SDS011;11875;49.356;2.718;2023-05-10T03:50:24;7.13;;;2.22;;
23404;SDS011;11875;49.356;2.718;2023-05-10T03:52:51;7.25;;;2.53;;
23404;SDS011;11875;49.356;2.718;2023-05-10T03:55:17;5.10;;;2.20;;
23404;SDS011;11875;49.356;2.718;2023-05-10T03:57:42;6.13;;;2.58;;
23404;SDS011;11875;49.356;2.718;2023-05-10T04:00:08;4.72;;;2.03;;
23404;SDS011;11875;49.356;2.718;2023-05-10T04:02:34;3.75;;;1.98;;
23404;SDS011;11875;49.356;2.718;2023-05-10T04:05:00;6.65;;;2.13;;
23404;SDS011;11875;49.356;2.718;2023-05-10T04:07:26;8.52;;;2.17;;
23404;SDS011;11875;49.356;2.718;2023-05-10T04:09:51;9.20;;;2.30;;
23404;SDS011;11875;49.356;2.718;2023-05-10T04:12:17;8.43;;;2.20;;
23404;SDS011;11875;49.356;2.718;2023-05-10T04:14:43;8.00;;;2.72;;
23404;SDS011;11875;49.356;2.718;2023-05-10T04:17:08;5.60;;;2.08;;
23404;SDS011;11875;49.356;2.718;2023-05-10T04:19:34;10.00;;;2.20;;
23404;SDS011;11875;49.356;2.718;2023-05-10T04:22:00;8.47;;;2.27;;
23404;SDS011;11875;49.356;2.718;2023-05-10T04:24:27;6.80;;;2.07;;
23404;SDS011;11875;49.356;2.718;2023-05-10T04:26:53;4.67;;;1.83;;
23404;SDS011;11875;49.356;2.718;2023-05-10T04:29:19;6.70;;;2.03;;
23404;SDS011;11875;49.356;2.718;2023-05-10T04:31:45;4.80;;;2.07;;
23404;SDS011;11875;49.356;2.718;2023-05-10T04:34:10;4.10;;;2.27;;
23404;SDS011;11875;49.356;2.718;2023-05-10T04:36:36;5.90;;;2.27;;
23404;SDS011;11875;49.356;2.718;2023-05-10T04:39:02;7.80;;;2.07;;
23404;SDS011;11875;49.356;2.718;2023-05-10T04:41:28;5.70;;;2.43;;
23404;SDS011;11875;49.356;2.718;2023-05-10T04:43:54;4.67;;;2.07;;
23404;SDS011;11875;49.356;2.718;2023-05-10T04:46:20;6.20;;;2.40;;
23404;SDS011;11875;49.356;2.718;2023-05-10T04:48:45;7.00;;;2.23;;
23404;SDS011;11875;49.356;2.718;2023-05-10T04:51:11;3.58;;;1.80;;
23404;SDS011;11875;49.356;2.718;2023-05-10T04:53:37;4.73;;;1.70;;
23404;SDS011;11875;49.356;2.718;2023-05-10T04:56:03;8.47;;;1.87;;
23404;SDS011;11875;49.356;2.718;2023-05-10T04:58:29;9.27;;;2.10;;
23404;SDS011;11875;49.356;2.718;2023-05-10T05:00:54;3.80;;;2.03;;
23404;SDS011;11875;49.356;2.718;2023-05-10T05:03:20;3.87;;;1.93;;
23404;SDS011;11875;49.356;2.718;2023-05-10T05:05:47;5.23;;;1.60;;
23404;SDS011;11875;49.356;2.718;2023-05-10T05:08:12;5.37;;;1.80;;
23404;SDS011;11875;49.356;2.718;2023-05-10T05:10:38;6.57;;;1.90;;
23404;SDS011;11875;49.356;2.718;2023-05-10T05:13:03;9.77;;;1.77;;
23404;SDS011;11875;49.356;2.718;2023-05-10T05:15:29;5.37;;;1.77;;
23404;SDS011;11875;49.356;2.718;2023-05-10T05:17:55;8.23;;;1.70;;
23404;SDS011;11875;49.356;2.718;2023-05-10T05:20:21;3.40;;;1.50;;
23404;SDS011;11875;49.356;2.718;2023-05-10T05:22:47;5.67;;;1.37;;
23404;SDS011;11875;49.356;2.718;2023-05-10T05:25:13;3.88;;;1.50;;
23404;SDS011;11875;49.356;2.718;2023-05-10T05:27:38;4.80;;;1.65;;
23404;SDS011;11875;49.356;2.718;2023-05-10T05:30:04;4.23;;;1.70;;
23404;SDS011;11875;49.356;2.718;2023-05-10T05:32:30;4.80;;;1.90;;
23404;SDS011;11875;49.356;2.718;2023-05-10T05:34:56;5.88;;;1.80;;
23404;SDS011;11875;49.356;2.718;2023-05-10T05:37:22;4.03;;;1.70;;
23404;SDS011;11875;49.356;2.718;2023-05-10T05:39:47;4.30;;;1.45;;
23404;SDS011;11875;49.356;2.718;2023-05-10T05:42:13;2.85;;;1.60;;
23404;SDS011;11875;49.356;2.718;2023-05-10T05:44:39;5.57;;;2.03;;
23404;SDS011;11875;49.356;2.718;2023-05-10T05:47:05;4.80;;;1.88;;
23404;SDS011;11875;49.356;2.718;2023-05-10T05:49:31;7.15;;;1.90;;
23404;SDS011;11875;49.356;2.718;2023-05-10T05:52:00;5.22;;;1.90;;
23404;SDS011;11875;49.356;2.718;2023-05-10T05:54:28;4.28;;;1.90;;
23404;SDS011;11875;49.356;2.718;2023-05-10T05:56:54;4.43;;;2.33;;
23404;SDS011;11875;49.356;2.718;2023-05-10T05:59:21;4.13;;;1.63;;
23404;SDS011;11875;49.356;2.718;2023-05-10T06:01:47;5.00;;;1.77;;
23404;SDS011;11875;49.356;2.718;2023-05-10T06:04:13;3.42;;;2.05;;
23404;SDS011;11875;49.356;2.718;2023-05-10T06:06:38;3.90;;;1.73;;
23404;SDS011;11875;49.356;2.718;2023-05-10T06:09:04;9.18;;;2.33;;
23404;SDS011;11875;49.356;2.718;2023-05-10T06:11:30;2.70;;;1.75;;
23404;SDS011;11875;49.356;2.718;2023-05-10T06:13:57;4.18;;;2.00;;
23404;SDS011;11875;49.356;2.718;2023-05-10T06:16:23;7.00;;;2.58;;
23404;SDS011;11875;49.356;2.718;2023-05-10T06:18:48;6.75;;;1.90;;
23404;SDS011;11875;49.356;2.718;2023-05-10T06:21:14;1.90;;;1.42;;
23404;SDS011;11875;49.356;2.718;2023-05-10T06:23:41;5.93;;;2.28;;
23404;SDS011;11875;49.356;2.718;2023-05-10T06:26:06;3.05;;;2.00;;
23404;SDS011;11875;49.356;2.718;2023-05-10T06:28:32;2.92;;;1.80;;
23404;SDS011;11875;49.356;2.718;2023-05-10T06:30:58;4.68;;;1.70;;
23404;SDS011;11875;49.356;2.718;2023-05-10T06:33:24;3.80;;;2.37;;
23404;SDS011;11875;49.356;2.718;2023-05-10T06:35:49;4.00;;;2.25;;
23404;SDS011;11875;49.356;2.718;2023-05-10T06:38:15;6.40;;;2.50;;
23404;SDS011;11875;49.356;2.718;2023-05-10T06:40:41;8.00;;;2.20;;
23404;SDS011;11875;49.356;2.718;2023-05-10T06:43:07;7.35;;;1.92;;
23404;SDS011;11875;49.356;2.718;2023-05-10T06:45:33;6.43;;;2.00;;
23404;SDS011;11875;49.356;2.718;2023-05-10T06:47:58;5.32;;;2.08;;
23404;SDS011;11875;49.356;2.718;2023-05-10T06:50:24;3.88;;;2.13;;
23404;SDS011;11875;49.356;2.718;2023-05-10T06:52:50;5.70;;;2.15;;
23404;SDS011;11875;49.356;2.718;2023-05-10T06:55:16;2.92;;;1.77;;
23404;SDS011;11875;49.356;2.718;2023-05-10T06:57:42;5.28;;;1.63;;
23404;SDS011;11875;49.356;2.718;2023-05-10T07:00:07;3.92;;;1.80;;
23404;SDS011;11875;49.356;2.718;2023-05-10T07:02:34;5.20;;;2.28;;
23404;SDS011;11875;49.356;2.718;2023-05-10T07:05:00;3.08;;;1.90;;
23404;SDS011;11875;49.356;2.718;2023-05-10T07:07:27;4.28;;;2.17;;
23404;SDS011;11875;49.356;2.718;2023-05-10T07:09:52;4.40;;;1.88;;
23404;SDS011;11875;49.356;2.718;2023-05-10T07:12:18;1.92;;;1.70;;
23404;SDS011;11875;49.356;2.718;2023-05-10T07:14:44;2.78;;;1.73;;
23404;SDS011;11875;49.356;2.718;2023-05-10T07:17:10;6.10;;;2.35;;
23404;SDS011;11875;49.356;2.718;2023-05-10T07:19:35;4.57;;;1.75;;
23404;SDS011;11875;49.356;2.718;2023-05-10T07:22:01;4.68;;;2.42;;
23404;SDS011;11875;49.356;2.718;2023-05-10T07:24:27;5.43;;;2.22;;
23404;SDS011;11875;49.356;2.718;2023-05-10T07:26:52;3.58;;;2.03;;
23404;SDS011;11875;49.356;2.718;2023-05-10T07:29:18;5.70;;;2.38;;
23404;SDS011;11875;49.356;2.718;2023-05-10T07:31:43;3.58;;;2.40;;
23404;SDS011;11875;49.356;2.718;2023-05-10T07:34:09;3.80;;;2.47;;
23404;SDS011;11875;49.356;2.718;2023-05-10T07:36:34;5.60;;;2.80;;
23404;SDS011;11875;49.356;2.718;2023-05-10T07:39:00;6.13;;;2.70;;
23404;SDS011;11875;49.356;2.718;2023-05-10T07:41:27;5.88;;;2.90;;
23404;SDS011;11875;49.356;2.718;2023-05-10T07:43:52;3.85;;;3.00;;
23404;SDS011;11875;49.356;2.718;2023-05-10T07:46:18;3.58;;;2.75;;
23404;SDS011;11875;49.356;2.718;2023-05-10T07:48:44;4.70;;;2.40;;
23404;SDS011;11875;49.356;2.718;2023-05-10T07:51:10;3.63;;;2.30;;
23404;SDS011;11875;49.356;2.718;2023-05-10T07:53:36;4.22;;;2.40;;
23404;SDS011;11875;49.356;2.718;2023-05-10T07:56:19;5.18;;;2.45;;
23404;SDS011;11875;49.356;2.718;2023-05-10T07:58:50;4.68;;;2.33;;
23404;SDS011;11875;49.356;2.718;2023-05-10T08:01:16;3.75;;;2.65;;
23404;SDS011;11875;49.356;2.718;2023-05-10T08:03:42;3.65;;;2.55;;
23404;SDS011;11875;49.356;2.718;2023-05-10T08:06:08;4.13;;;2.47;;
23404;SDS011;11875;49.356;2.718;2023-05-10T08:08:33;3.40;;;2.50;;
23404;SDS011;11875;49.356;2.718;2023-05-10T08:10:59;5.45;;;2.88;;
23404;SDS011;11875;49.356;2.718;2023-05-10T08:13:24;6.10;;;2.97;;
23404;SDS011;11875;49.356;2.718;2023-05-10T08:15:50;4.45;;;2.78;;
23404;SDS011;11875;49.356;2.718;2023-05-10T08:18:18;5.53;;;2.85;;
23404;SDS011;11875;49.356;2.718;2023-05-10T08:20:43;4.00;;;2.75;;
23404;SDS011;11875;49.356;2.718;2023-05-10T08:23:09;8.52;;;3.20;;
23404;SDS011;11875;49.356;2.718;2023-05-10T08:25:36;3.90;;;2.90;;
23404;SDS011;11875;49.356;2.718;2023-05-10T08:28:02;3.40;;;3.00;;
23404;SDS011;11875;49.356;2.718;2023-05-10T08:30:28;4.47;;;3.20;;
23404;SDS011;11875;49.356;2.718;2023-05-10T08:32:53;12.50;;;5.40;;
23404;SDS011;11875;49.356;2.718;2023-05-10T08:35:19;10.70;;;5.60;;
23404;SDS011;11875;49.356;2.718;2023-05-10T08:37:44;9.18;;;5.35;;
23404;SDS011;11875;49.356;2.718;2023-05-10T08:40:11;9.73;;;5.80;;
23404;SDS011;11875;49.356;2.718;2023-05-10T08:42:39;8.00;;;6.00;;
23404;SDS011;11875;49.356;2.718;2023-05-10T08:45:06;9.90;;;5.97;;
23404;SDS011;11875;49.356;2.718;2023-05-10T08:47:34;8.23;;;5.93;;
23404;SDS011;11875;49.356;2.718;2023-05-10T08:50:02;7.13;;;5.95;;
23404;SDS011;11875;49.356;2.718;2023-05-10T08:52:30;7.30;;;4.70;;
23404;SDS011;11875;49.356;2.718;2023-05-10T08:54:57;9.40;;;4.63;;
23404;SDS011;11875;49.356;2.718;2023-05-10T08:57:23;7.05;;;4.47;;
23404;SDS011;11875;49.356;2.718;2023-05-10T08:59:48;5.88;;;4.18;;
23404;SDS011;11875;49.356;2.718;2023-05-10T09:02:14;4.45;;;3.70;;
23404;SDS011;11875;49.356;2.718;2023-05-10T09:04:40;6.85;;;3.97;;
23404;SDS011;11875;49.356;2.718;2023-05-10T09:07:06;4.40;;;4.00;;
23404;SDS011;11875;49.356;2.718;2023-05-10T09:09:32;7.80;;;3.90;;
23404;SDS011;11875;49.356;2.718;2023-05-10T09:11:59;4.53;;;3.88;;
23404;SDS011;11875;49.356;2.718;2023-05-10T09:14:25;11.98;;;5.03;;
23404;SDS011;11875;49.356;2.718;2023-05-10T09:16:51;7.03;;;4.80;;
23404;SDS011;11875;49.356;2.718;2023-05-10T09:19:19;15.98;;;5.38;;
23404;SDS011;11875;49.356;2.718;2023-05-10T09:21:44;8.30;;;4.70;;
23404;SDS011;11875;49.356;2.718;2023-05-10T09:24:10;9.00;;;5.00;;
23404;SDS011;11875;49.356;2.718;2023-05-10T09:26:45;7.75;;;5.32;;
23404;SDS011;11875;49.356;2.718;2023-05-10T09:29:13;11.55;;;6.45;;
23404;SDS011;11875;49.356;2.718;2023-05-10T09:31:43;12.00;;;5.95;;
23404;SDS011;11875;49.356;2.718;2023-05-10T09:34:11;10.07;;;4.95;;
23404;SDS011;11875;49.356;2.718;2023-05-10T09:36:56;16.15;;;7.68;;
23404;SDS011;11875;49.356;2.718;2023-05-10T09:39:32;11.30;;;6.75;;
23404;SDS011;11875;49.356;2.718;2023-05-10T09:42:05;9.25;;;6.13;;
23404;SDS011;11875;49.356;2.718;2023-05-10T09:44:32;8.82;;;4.57;;
23404;SDS011;11875;49.356;2.718;2023-05-10T09:46:59;9.90;;;6.57;;
23404;SDS011;11875;49.356;2.718;2023-05-10T09:49:28;14.90;;;6.47;;
23404;SDS011;11875;49.356;2.718;2023-05-10T09:52:03;7.45;;;5.22;;
23404;SDS011;11875;49.356;2.718;2023-05-10T09:54:30;7.13;;;5.00;;
23404;SDS011;11875;49.356;2.718;2023-05-10T09:56:57;9.95;;;5.53;;
23404;SDS011;11875;49.356;2.718;2023-05-10T09:59:24;13.30;;;7.95;;
23404;SDS011;11875;49.356;2.718;2023-05-10T10:01:52;12.80;;;5.70;;
23404;SDS011;11875;49.356;2.718;2023-05-10T10:04:21;12.07;;;5.70;;
23404;SDS011;11875;49.356;2.718;2023-05-10T10:06:46;12.35;;;5.85;;
23404;SDS011;11875;49.356;2.718;2023-05-10T10:09:24;14.00;;;6.07;;
23404;SDS011;11875;49.356;2.718;2023-05-10T10:11:50;14.93;;;6.25;;
23404;SDS011;11875;49.356;2.718;2023-05-10T10:14:18;12.23;;;6.03;;
23404;SDS011;11875;49.356;2.718;2023-05-10T10:16:43;10.30;;;5.75;;
23404;SDS011;11875;49.356;2.718;2023-05-10T10:19:10;11.45;;;5.22;;
23404;SDS011;11875;49.356;2.718;2023-05-10T10:21:35;16.17;;;5.97;;
23404;SDS011;11875;49.356;2.718;2023-05-10T10:24:01;13.02;;;6.28;;
23404;SDS011;11875;49.356;2.718;2023-05-10T10:26:28;10.65;;;5.57;;
23404;SDS011;11875;49.356;2.718;2023-05-10T10:31:45;15.65;;;6.18;;
23404;SDS011;11875;49.356;2.718;2023-05-10T10:34:25;13.30;;;7.13;;
23404;SDS011;11875;49.356;2.718;2023-05-10T10:36:53;20.63;;;5.97;;
23404;SDS011;11875;49.356;2.718;2023-05-10T10:39:19;15.68;;;6.47;;
23404;SDS011;11875;49.356;2.718;2023-05-10T10:41:49;18.02;;;8.82;;
23404;SDS011;11875;49.356;2.718;2023-05-10T10:52:15;9.15;;;4.03;;
23404;SDS011;11875;49.356;2.718;2023-05-10T10:57:31;4.78;;;2.75;;
23404;SDS011;11875;49.356;2.718;2023-05-10T11:02:57;5.78;;;2.38;;
23404;SDS011;11875;49.356;2.718;2023-05-10T11:08:16;4.57;;;2.63;;
23404;SDS011;11875;49.356;2.718;2023-05-10T11:10:53;8.80;;;2.72;;
23404;SDS011;11875;49.356;2.718;2023-05-10T11:13:29;4.43;;;2.30;;
23404;SDS011;11875;49.356;2.718;2023-05-10T11:16:09;3.60;;;2.08;;
23404;SDS011;11875;49.356;2.718;2023-05-10T11:24:15;4.53;;;2.38;;
23404;SDS011;11875;49.356;2.718;2023-05-10T11:26:44;4.82;;;2.40;;
23404;SDS011;11875;49.356;2.718;2023-05-10T11:29:11;6.95;;;2.50;;
23404;SDS011;11875;49.356;2.718;2023-05-10T11:31:44;4.57;;;2.33;;
23404;SDS011;11875;49.356;2.718;2023-05-10T11:34:11;5.00;;;2.45;;
23404;SDS011;11875;49.356;2.718;2023-05-10T11:36:50;4.85;;;2.50;;
23404;SDS011;11875;49.356;2.718;2023-05-10T11:39:18;6.53;;;2.40;;
23404;SDS011;11875;49.356;2.718;2023-05-10T11:41:46;6.35;;;2.97;;
23404;SDS011;11875;49.356;2.718;2023-05-10T11:44:13;6.55;;;2.60;;
23404;SDS011;11875;49.356;2.718;2023-05-10T11:46:39;6.55;;;2.60;;
23404;SDS011;11875;49.356;2.718;2023-05-10T11:49:05;7.03;;;2.90;;
23404;SDS011;11875;49.356;2.718;2023-05-10T11:51:35;6.50;;;3.42;;
23404;SDS011;11875;49.356;2.718;2023-05-10T11:54:02;6.25;;;2.80;;
23404;SDS011;11875;49.356;2.718;2023-05-10T11:56:32;7.68;;;2.78;;
23404;SDS011;11875;49.356;2.718;2023-05-10T11:58:58;5.65;;;2.88;;
23404;SDS011;11875;49.356;2.718;2023-05-10T12:01:25;7.43;;;2.90;;
23404;SDS011;11875;49.356;2.718;2023-05-10T12:03:52;5.82;;;2.58;;
23404;SDS011;11875;49.356;2.718;2023-05-10T12:06:20;4.80;;;2.53;;
23404;SDS011;11875;49.356;2.718;2023-05-10T12:08:46;5.28;;;2.78;;
23404;SDS011;11875;49.356;2.718;2023-05-10T12:11:17;7.72;;;2.92;;
23404;SDS011;11875;49.356;2.718;2023-05-10T12:13:43;7.00;;;2.72;;
23404;SDS011;11875;49.356;2.718;2023-05-10T12:16:13;8.27;;;2.97;;
23404;SDS011;11875;49.356;2.718;2023-05-10T12:18:43;7.82;;;3.30;;
23404;SDS011;11875;49.356;2.718;2023-05-10T12:21:10;5.75;;;2.92;;
23404;SDS011;11875;49.356;2.718;2023-05-10T12:23:37;8.20;;;3.30;;
23404;SDS011;11875;49.356;2.718;2023-05-10T12:26:05;7.75;;;3.45;;
23404;SDS011;11875;49.356;2.718;2023-05-10T12:28:33;17.63;;;3.88;;
23404;SDS011;11875;49.356;2.718;2023-05-10T12:30:59;9.00;;;3.88;;
23404;SDS011;11875;49.356;2.718;2023-05-10T12:33:27;8.27;;;3.60;;
23404;SDS011;11875;49.356;2.718;2023-05-10T12:36:00;13.57;;;4.57;;
23404;SDS011;11875;49.356;2.718;2023-05-10T12:40:57;10.68;;;4.68;;
23404;SDS011;11875;49.356;2.718;2023-05-10T12:43:24;17.00;;;5.22;;
23404;SDS011;11875;49.356;2.718;2023-05-10T12:45:50;7.00;;;3.83;;
23404;SDS011;11875;49.356;2.718;2023-05-10T12:48:15;8.93;;;4.50;;
23404;SDS011;11875;49.356;2.718;2023-05-10T12:50:41;15.30;;;4.65;;
23404;SDS011;11875;49.356;2.718;2023-05-10T12:53:06;8.15;;;3.63;;
23404;SDS011;11875;49.356;2.718;2023-05-10T12:55:32;7.55;;;3.45;;
23404;SDS011;11875;49.356;2.718;2023-05-10T12:57:58;6.70;;;3.47;;
23404;SDS011;11875;49.356;2.718;2023-05-10T13:00:23;8.68;;;4.13;;
23404;SDS011;11875;49.356;2.718;2023-05-10T13:02:50;15.65;;;4.00;;
23404;SDS011;11875;49.356;2.718;2023-05-10T13:05:15;11.82;;;3.70;;
23404;SDS011;11875;49.356;2.718;2023-05-10T13:07:41;6.63;;;3.45;;
23404;SDS011;11875;49.356;2.718;2023-05-10T13:10:08;5.55;;;3.50;;
23404;SDS011;11875;49.356;2.718;2023-05-10T13:12:35;7.65;;;3.17;;
23404;SDS011;11875;49.356;2.718;2023-05-10T13:15:01;13.23;;;3.83;;
23404;SDS011;11875;49.356;2.718;2023-05-10T13:17:28;11.65;;;3.50;;
23404;SDS011;11875;49.356;2.718;2023-05-10T13:19:54;8.93;;;3.83;;
23404;SDS011;11875;49.356;2.718;2023-05-10T13:22:19;8.00;;;3.97;;
23404;SDS011;11875;49.356;2.718;2023-05-10T13:24:45;11.57;;;3.38;;
23404;SDS011;11875;49.356;2.718;2023-05-10T13:27:10;9.48;;;3.63;;
23404;SDS011;11875;49.356;2.718;2023-05-10T13:29:36;9.02;;;3.83;;
23404;SDS011;11875;49.356;2.718;2023-05-10T13:32:02;9.38;;;3.85;;
23404;SDS011;11875;49.356;2.718;2023-05-10T13:34:27;7.50;;;3.17;;
23404;SDS011;11875;49.356;2.718;2023-05-10T13:36:53;8.65;;;3.72;;
23404;SDS011;11875;49.356;2.718;2023-05-10T13:39:19;6.07;;;3.60;;
23404;SDS011;11875;49.356;2.718;2023-05-10T13:41:45;8.50;;;3.60;;
23404;SDS011;11875;49.356;2.718;2023-05-10T13:44:12;8.35;;;3.65;;
23404;SDS011;11875;49.356;2.718;2023-05-10T13:46:39;11.88;;;2.97;;
23404;SDS011;11875;49.356;2.718;2023-05-10T13:49:05;9.93;;;3.35;;
23404;SDS011;11875;49.356;2.718;2023-05-10T13:51:31;9.68;;;3.70;;
23404;SDS011;11875;49.356;2.718;2023-05-10T13:53:58;13.57;;;3.70;;
23404;SDS011;11875;49.356;2.718;2023-05-10T13:56:23;7.85;;;3.63;;
23404;SDS011;11875;49.356;2.718;2023-05-10T13:58:49;8.57;;;3.67;;
23404;SDS011;11875;49.356;2.718;2023-05-10T14:01:15;8.02;;;3.50;;
23404;SDS011;11875;49.356;2.718;2023-05-10T14:03:40;10.30;;;3.88;;
23404;SDS011;11875;49.356;2.718;2023-05-10T14:06:06;13.52;;;4.70;;
23404;SDS011;11875;49.356;2.718;2023-05-10T14:08:32;9.77;;;3.42;;
23404;SDS011;11875;49.356;2.718;2023-05-10T14:10:59;9.30;;;3.53;;
23404;SDS011;11875;49.356;2.718;2023-05-10T14:13:25;9.27;;;3.55;;
23404;SDS011;11875;49.356;2.718;2023-05-10T14:15:50;14.00;;;3.72;;
23404;SDS011;11875;49.356;2.718;2023-05-10T14:18:17;6.90;;;3.55;;
23404;SDS011;11875;49.356;2.718;2023-05-10T14:20:43;12.43;;;3.60;;
23404;SDS011;11875;49.356;2.718;2023-05-10T14:23:09;9.88;;;3.85;;
23404;SDS011;11875;49.356;2.718;2023-05-10T14:25:35;12.13;;;4.35;;
23404;SDS011;11875;49.356;2.718;2023-05-10T14:28:00;10.93;;;3.55;;
23404;SDS011;11875;49.356;2.718;2023-05-10T14:30:26;15.65;;;3.72;;
23404;SDS011;11875;49.356;2.718;2023-05-10T14:32:52;15.32;;;5.85;;
23404;SDS011;11875;49.356;2.718;2023-05-10T14:35:19;7.97;;;3.13;;
23404;SDS011;11875;49.356;2.718;2023-05-10T14:37:44;9.93;;;3.50;;
23404;SDS011;11875;49.356;2.718;2023-05-10T14:40:10;10.23;;;3.47;;
23404;SDS011;11875;49.356;2.718;2023-05-10T14:42:37;11.45;;;3.63;;
23404;SDS011;11875;49.356;2.718;2023-05-10T14:45:03;9.25;;;3.42;;
23404;SDS011;11875;49.356;2.718;2023-05-10T14:47:29;8.88;;;3.42;;
23404;SDS011;11875;49.356;2.718;2023-05-10T14:49:55;7.93;;;3.20;;
23404;SDS011;11875;49.356;2.718;2023-05-10T14:52:20;8.77;;;3.47;;
23404;SDS011;11875;49.356;2.718;2023-05-10T14:54:46;5.70;;;2.75;;
23404;SDS011;11875;49.356;2.718;2023-05-10T14:57:12;8.63;;;2.90;;
23404;SDS011;11875;49.356;2.718;2023-05-10T14:59:38;8.13;;;3.10;;
23404;SDS011;11875;49.356;2.718;2023-05-10T15:02:04;9.05;;;2.70;;
23404;SDS011;11875;49.356;2.718;2023-05-10T15:04:29;9.52;;;3.40;;
23404;SDS011;11875;49.356;2.718;2023-05-10T15:06:55;10.75;;;3.03;;
23404;SDS011;11875;49.356;2.718;2023-05-10T15:09:24;7.47;;;2.88;;
23404;SDS011;11875;49.356;2.718;2023-05-10T15:11:50;17.10;;;2.88;;
23404;SDS011;11875;49.356;2.718;2023-05-10T15:14:15;6.65;;;2.67;;
23404;SDS011;11875;49.356;2.718;2023-05-10T15:16:41;6.97;;;2.30;;
23404;SDS011;11875;49.356;2.718;2023-05-10T15:19:06;8.23;;;2.67;;
23404;SDS011;11875;49.356;2.718;2023-05-10T15:21:32;11.13;;;3.90;;
23404;SDS011;11875;49.356;2.718;2023-05-10T15:24:03;9.05;;;2.10;;
23404;SDS011;11875;49.356;2.718;2023-05-10T15:26:30;7.55;;;2.22;;
23404;SDS011;11875;49.356;2.718;2023-05-10T15:28:55;5.88;;;1.98;;
23404;SDS011;11875;49.356;2.718;2023-05-10T15:31:21;5.40;;;2.15;;
23404;SDS011;11875;49.356;2.718;2023-05-10T15:33:47;5.18;;;1.77;;